AirNav   Everest Fuels
 
 1170 users online  

0AZ0 Arizona Heart Hospital Heliport
Phoenix, Arizona, USA

GOING TO PHOENIX?


FAA INFORMATION EFFECTIVE 22 APRIL 2021

Location

FAA Identifier: 0AZ0
Lat/Long: 33-28-52.5000N 112-02-24.5000W
33-28.875000N 112-02.408333W
33.4812500,-112.0401389
(estimated)
Elevation: 1161 ft. / 354 m (estimated)
Variation: 12E (1995)
From city: 3 miles N of PHOENIX, AZ
Time zone: UTC -7 (year round; does not observe DST)
Zip code: 85016

Heliport Operations

Heliport use: Private use. Permission required prior to landing
Activation date: 09/1999
Control tower: no
ARTCC: ALBUQUERQUE CENTER
FSS: PRESCOTT FLIGHT SERVICE STATION
Attendance: CONTINUOUS
Wind indicator: lighted
Segmented circle: no
Lights: DUSK-DAWN. FOR FLOOD LGTS CALL (602) 532-1000 OR 5 CLICKS ON FREQ 123.05.
Beacon: white-green-yellow (heliport)
Operates sunset to sunrise.

Heliport Communications

WX ASOS at PHX (3 nm SE): PHONE 602-231-8557
WX ASOS at SDL (11 nm NE): PHONE 480-483-3049
WX ASOS at DVT (13 nm N): 126.5 (623-587-7764)
WX AWOS-3 at GEU (13 nm W): 119.425 (623-877-8609)
WX ASOS at FFZ (16 nm E): PHONE 480-641-4111
WX AWOS-3PT at CHD (17 nm SE): 128.325 (480-814-9952)

Nearby radio navigation aids

VOR radial/distance  VOR name  Freq  Var
PXRr298/4.5PHOENIX VORTAC115.6012E
IWAr286/22.2WILLIE VORTAC113.3013E
TFDr338/36.3STANFIELD VORTAC114.8012E
BXKr074/39.3BUCKEYE VORTAC110.6014E

 
NDB name  Hdg/Dist  Freq  Var  ID
CHANDLER306/17.440712ECHD -.-. .... -..

Heliport Services

Runway Information

Helipad H1

Dimensions: 40 x 40 ft. / 12 x 12 m
Surface: mats
Runway edge lights: PERI
FLOOD LGTS ALSO AVBL.
Operational restrictions: ROOFTOP HELIPAD.
Latitude: 33-28.876333N
Longitude: 112-02.386333W
Elevation: 1161.0 ft.
Traffic pattern: leftleft

Heliport Ownership and Management from official FAA records

Ownership: Privately-owned
Owner: ARIZONA HEART HOSPITAL
1930 EAST THOMAS RD
PHOENIX, AZ 85016
Phone 602-532-1000
Manager: TIM RILEY
ARIZONA HEART HOSPITAL, 1930 EAST THOMAS RD
PHOENIX, AZ 85016
Phone (602) 532-2176

Additional Remarks

FOR CD CTC PHOENIX APCH AT 602-306-2565.

Instrument Procedures

There are no published instrument procedures at 0AZ0.

Some nearby airports with instrument procedures:

KPHX - Phoenix Sky Harbor International Airport (3 nm SE)
KSDL - Scottsdale Airport (11 nm NE)
P19 - Stellar Airpark (13 nm SE)
KDVT - Phoenix Deer Valley Airport (13 nm N)
KGEU - Glendale Municipal Airport (13 nm W)
KFFZ - Falcon Field Airport (16 nm E)
KCHD - Chandler Municipal Airport (17 nm SE)
KGYR - Phoenix Goodyear Airport (17 nm W)
KLUF - Luke Air Force Base (17 nm W)
 
Loc | Ops | Rwys | IFR | FBO | Links
Com | Nav | Svcs | Stats | Notes
Area around 0AZ0 (Arizona Heart Hospital Heliport)
 
Road maps at: MapQuest Bing Google
 
Aerial photo
No photo
 
Sectional chart

 
Airport distance calculator
Flying to Arizona Heart Hospital Heliport? Find the distance to fly.

From to 0AZ0

Sunrise and sunset
Times for 15-May-2021
 Local
(UTC-7)
 Zulu
(UTC)
Morning civil twilight05:0112:01
Sunrise05:2912:29
Sunset19:2002:20
Evening civil twilight19:4802:48

Current date and time
Zulu (UTC)  15-May-2021 19:49:26
Local (UTC-7)  15-May-2021 12:49:26
 
METAR
KPHX 
3nm S 
151851Z 16011G18KT 130V200 10SM FEW150 34/M03 A2979 RMK AO2 SLP066 T03391033
KSDL 
10nm NE 
151853Z VRB05G16KT 10SM CLR 32/M01 A2983 RMK AO2 SLP073 T03221006
KDVT 
12nm N 
151853Z 15010G16KT 10SM CLR 32/M01 A2982 RMK AO2 SLP072 T03171011
KGEU 
13nm W 
151852Z 10007KT 10SM SKC 32/M07 A2981
KFFZ 
16nm E 
151854Z 16012G18KT 10SM CLR 32/M01 A2981 RMK AO2 SLP069 T03221011
KLUF 
16nm W 
151858Z AUTO 25006KT 10SM FEW190 32/M08 A2979 RMK AO2 SLP074 T03211081 $
KGYR 
17nm W 
151847Z 22006KT 10SM SKC 33/M05 A2979
KCHD 
17nm SE 
151847Z 18010KT 10SM SKC 32/M03 A2982
TAF
KPHX 
3nm S 
151743Z 1518/1624 17012G22KT P6SM SKC FM152000 20013G23KT P6SM SKC FM160000 26015G25KT P6SM SKC FM160500 25007KT P6SM SKC FM161000 12009KT P6SM SKC FM161600 18008KT P6SM SKC FM162100 24015G25KT P6SM SKC
KSDL 
10nm NE 
151743Z 1518/1618 19008G18KT P6SM SKC FM152000 21012G22KT P6SM SKC FM160000 24013G23KT P6SM SKC FM160400 25007KT P6SM SKC FM160800 VRB03KT P6SM SKC FM161600 18008KT P6SM SKC
KDVT 
12nm N 
151743Z 1518/1618 17012G22KT P6SM SKC FM152000 20013G23KT P6SM SKC FM152300 23015G25KT P6SM SKC FM160500 25007KT P6SM SKC FM161000 12009KT P6SM SKC FM161600 18008KT P6SM SKC
KLUF 
16nm W 
142000Z 1420/1602 VRB06KT 9999 FEW250 QNH2982INS BECMG 1421/1422 23010G20KT 9999 FEW250 QNH2983INS BECMG 1502/1503 23009KT 9999 FEW160 QNH2980INS WND VRB06KT AFT 1507 BECMG 1520/1521 23012G18KT 9999 FEW160 QNH2974INS WND VRB06KT AFT 1602 TX39/1423Z TN17/1512Z LAST NO AMDS AFT 1423 NEXT 1712
NOTAMs
Click for the latest NOTAMs
NOTAMs are issued by the DoD/FAA and will open in a separate window not controlled by AirNav.

 

 
 

Would you like to see your business listed on this page?

 If your business provides an interesting product or service to pilots, flight crews, aircraft, or users of the Arizona Heart Hospital Heliport, you should consider listing it here.  To start the listing process, click on the button below
 
Add a business
 

Other Pages about Arizona Heart Hospital Heliport

Update a link
 
Copyright © AirNav, LLC. All rights reserved. Privacy Policy  Contact